sensor_id;sensor_type;location;lat;lon;timestamp;pressure;altitude;pressure_sealevel;temperature;humidity
62544;BME280;48597;49.030;1.822;2023-02-04T00:01:08;102755.03;;;19.96;38.65
62544;BME280;48597;49.030;1.822;2023-02-04T00:03:34;102763.22;;;19.98;38.63
62544;BME280;48597;49.030;1.822;2023-02-04T00:05:59;102770.59;;;19.99;38.64
62544;BME280;48597;49.030;1.822;2023-02-04T00:08:24;102764.06;;;19.98;38.65
62544;BME280;48597;49.030;1.822;2023-02-04T00:10:49;102766.47;;;20.00;38.62
62544;BME280;48597;49.030;1.822;2023-02-04T00:13:15;102763.22;;;20.02;38.61
62544;BME280;48597;49.030;1.822;2023-02-04T00:15:40;102756.69;;;20.05;38.61
62544;BME280;48597;49.030;1.822;2023-02-04T00:18:05;102756.69;;;20.05;38.62
62544;BME280;48597;49.030;1.822;2023-02-04T00:20:31;102757.09;;;20.07;38.50
62544;BME280;48597;49.030;1.822;2023-02-04T00:22:56;102758.75;;;20.11;38.49
62544;BME280;48597;49.030;1.822;2023-02-04T00:25:22;102756.28;;;20.13;38.56
62544;BME280;48597;49.030;1.822;2023-02-04T00:27:47;102755.06;;;20.14;38.55
62544;BME280;48597;49.030;1.822;2023-02-04T00:30:12;102758.34;;;20.20;38.37
62544;BME280;48597;49.030;1.822;2023-02-04T00:32:38;102749.34;;;20.21;38.46
62544;BME280;48597;49.030;1.822;2023-02-04T00:35:03;102748.53;;;20.21;38.37
62544;BME280;48597;49.030;1.822;2023-02-04T00:37:29;102753.44;;;20.24;38.51
62544;BME280;48597;49.030;1.822;2023-02-04T00:39:54;102751.81;;;20.23;38.37
62544;BME280;48597;49.030;1.822;2023-02-04T00:42:20;102752.19;;;20.28;38.45
62544;BME280;48597;49.030;1.822;2023-02-04T00:44:45;102752.59;;;20.27;38.45
62544;BME280;48597;49.030;1.822;2023-02-04T00:47:10;102756.31;;;20.31;38.41
62544;BME280;48597;49.030;1.822;2023-02-04T00:49:35;102756.31;;;20.34;38.46
62544;BME280;48597;49.030;1.822;2023-02-04T00:52:01;102746.94;;;20.38;38.34
62544;BME280;48597;49.030;1.822;2023-02-04T00:54:26;102753.88;;;20.40;38.24
62544;BME280;48597;49.030;1.822;2023-02-04T00:56:51;102746.94;;;20.45;38.35
62544;BME280;48597;49.030;1.822;2023-02-04T00:59:17;102742.41;;;20.40;38.36
62544;BME280;48597;49.030;1.822;2023-02-04T01:01:42;102746.91;;;20.41;38.46
62544;BME280;48597;49.030;1.822;2023-02-04T01:04:08;102757.56;;;20.41;38.44
62544;BME280;48597;49.030;1.822;2023-02-04T01:06:33;102755.94;;;20.36;38.52
62544;BME280;48597;49.030;1.822;2023-02-04T01:08:59;102762.88;;;20.42;38.55
62544;BME280;48597;49.030;1.822;2023-02-04T01:11:25;102760.44;;;20.48;38.32
62544;BME280;48597;49.030;1.822;2023-02-04T01:13:50;102753.44;;;20.52;38.22
62544;BME280;48597;49.030;1.822;2023-02-04T01:16:15;102752.66;;;20.48;38.38
62544;BME280;48597;49.030;1.822;2023-02-04T01:18:41;102755.50;;;20.52;38.43
62544;BME280;48597;49.030;1.822;2023-02-04T01:21:06;102761.22;;;20.52;38.49
62544;BME280;48597;49.030;1.822;2023-02-04T01:23:31;102755.13;;;20.50;38.29
62544;BME280;48597;49.030;1.822;2023-02-04T01:25:57;102747.34;;;20.50;38.41
62544;BME280;48597;49.030;1.822;2023-02-04T01:28:22;102754.28;;;20.46;38.45
62544;BME280;48597;49.030;1.822;2023-02-04T01:30:47;102755.53;;;20.48;38.56
62544;BME280;48597;49.030;1.822;2023-02-04T01:33:12;102762.91;;;20.49;38.41
62544;BME280;48597;49.030;1.822;2023-02-04T01:35:38;102755.94;;;20.50;38.55
62544;BME280;48597;49.030;1.822;2023-02-04T01:38:03;102751.41;;;20.56;38.20
62544;BME280;48597;49.030;1.822;2023-02-04T01:40:28;102759.19;;;20.56;38.42
62544;BME280;48597;49.030;1.822;2023-02-04T01:42:54;102758.78;;;20.61;38.31
62544;BME280;48597;49.030;1.822;2023-02-04T01:45:19;102757.16;;;20.63;38.33
62544;BME280;48597;49.030;1.822;2023-02-04T01:47:45;102760.84;;;20.60;38.17
62544;BME280;48597;49.030;1.822;2023-02-04T01:50:11;102762.84;;;20.67;38.31
62544;BME280;48597;49.030;1.822;2023-02-04T01:52:37;102755.91;;;20.68;38.27
62544;BME280;48597;49.030;1.822;2023-02-04T01:55:04;102763.28;;;20.69;38.23
62544;BME280;48597;49.030;1.822;2023-02-04T01:57:35;102764.50;;;20.68;38.07
62544;BME280;48597;49.030;1.822;2023-02-04T02:00:00;102768.19;;;20.68;38.27
62544;BME280;48597;49.030;1.822;2023-02-04T02:02:45;102764.09;;;20.69;38.28
62544;BME280;48597;49.030;1.822;2023-02-04T02:05:19;102765.31;;;20.68;38.13
62544;BME280;48597;49.030;1.822;2023-02-04T02:07:46;102758.78;;;20.75;38.00
62544;BME280;48597;49.030;1.822;2023-02-04T02:10:12;102754.28;;;20.74;38.02
62544;BME280;48597;49.030;1.822;2023-02-04T02:12:37;102761.22;;;20.77;37.98
62544;BME280;48597;49.030;1.822;2023-02-04T02:15:03;102762.44;;;20.79;38.04
62544;BME280;48597;49.030;1.822;2023-02-04T02:17:28;102766.94;;;20.84;37.88
62544;BME280;48597;49.030;1.822;2023-02-04T02:19:53;102761.63;;;20.82;37.92
62544;BME280;48597;49.030;1.822;2023-02-04T02:22:21;102755.88;;;20.86;37.99
62544;BME280;48597;49.030;1.822;2023-02-04T02:24:48;102748.94;;;20.87;37.71
62544;BME280;48597;49.030;1.822;2023-02-04T02:27:14;102748.50;;;20.88;37.95
62544;BME280;48597;49.030;1.822;2023-02-04T02:29:39;102750.97;;;20.90;37.81
62544;BME280;48597;49.030;1.822;2023-02-04T02:32:06;102753.84;;;20.90;37.90
62544;BME280;48597;49.030;1.822;2023-02-04T02:34:32;102745.63;;;20.92;37.71
62544;BME280;48597;49.030;1.822;2023-02-04T02:36:58;102737.00;;;20.95;37.80
62544;BME280;48597;49.030;1.822;2023-02-04T02:39:24;102746.84;;;20.98;37.50
62544;BME280;48597;49.030;1.822;2023-02-04T02:41:50;102740.28;;;21.01;37.48
62544;BME280;48597;49.030;1.822;2023-02-04T02:44:15;102757.50;;;20.97;37.64
62544;BME280;48597;49.030;1.822;2023-02-04T02:46:41;102750.13;;;21.00;37.65
62544;BME280;48597;49.030;1.822;2023-02-04T02:49:08;102747.25;;;21.00;37.59
62544;BME280;48597;49.030;1.822;2023-02-04T02:51:37;102742.31;;;21.04;37.52
62544;BME280;48597;49.030;1.822;2023-02-04T02:54:02;102746.00;;;21.04;37.42
62544;BME280;48597;49.030;1.822;2023-02-04T02:56:27;102746.81;;;21.09;37.44
62544;BME280;48597;49.030;1.822;2023-02-04T02:58:52;102738.22;;;21.09;37.57
62544;BME280;48597;49.030;1.822;2023-02-04T03:01:18;102740.25;;;21.04;37.50
62544;BME280;48597;49.030;1.822;2023-02-04T03:03:44;102746.84;;;21.01;37.53
62544;BME280;48597;49.030;1.822;2023-02-04T03:06:15;102751.34;;;20.99;37.61
62544;BME280;48597;49.030;1.822;2023-02-04T03:08:42;102759.94;;;20.99;37.60
62544;BME280;48597;49.030;1.822;2023-02-04T03:11:08;102751.75;;;21.01;37.60
62544;BME280;48597;49.030;1.822;2023-02-04T03:13:33;102753.00;;;21.00;37.52
62544;BME280;48597;49.030;1.822;2023-02-04T03:15:58;102750.94;;;20.97;37.50
62544;BME280;48597;49.030;1.822;2023-02-04T03:18:25;102762.00;;;20.95;37.73
62544;BME280;48597;49.030;1.822;2023-02-04T03:20:51;102764.03;;;20.94;37.53
62544;BME280;48597;49.030;1.822;2023-02-04T03:23:16;102764.03;;;20.94;37.77
62544;BME280;48597;49.030;1.822;2023-02-04T03:25:42;102762.00;;;20.95;37.52
62544;BME280;48597;49.030;1.822;2023-02-04T03:28:07;102751.75;;;20.94;37.75
62544;BME280;48597;49.030;1.822;2023-02-04T03:30:33;102758.72;;;20.93;37.69
62544;BME280;48597;49.030;1.822;2023-02-04T03:32:58;102752.56;;;20.91;37.81
62544;BME280;48597;49.030;1.822;2023-02-04T03:35:23;102759.97;;;20.88;37.61
62544;BME280;48597;49.030;1.822;2023-02-04T03:37:50;102758.34;;;20.87;37.69
62544;BME280;48597;49.030;1.822;2023-02-04T03:40:16;102760.78;;;20.85;37.89
62544;BME280;48597;49.030;1.822;2023-02-04T03:42:41;102758.34;;;20.87;37.88
62544;BME280;48597;49.030;1.822;2023-02-04T03:45:06;102762.84;;;20.85;37.95
62544;BME280;48597;49.030;1.822;2023-02-04T03:47:32;102753.44;;;20.84;37.69
62544;BME280;48597;49.030;1.822;2023-02-04T03:49:57;102764.91;;;20.84;37.92
62544;BME280;48597;49.030;1.822;2023-02-04T03:52:22;102759.97;;;20.81;38.00
62544;BME280;48597;49.030;1.822;2023-02-04T03:54:47;102761.22;;;20.84;37.86
62544;BME280;48597;49.030;1.822;2023-02-04T03:57:13;102758.75;;;20.82;37.86
62544;BME280;48597;49.030;1.822;2023-02-04T03:59:40;102764.88;;;20.81;37.83
62544;BME280;48597;49.030;1.822;2023-02-04T04:02:05;102758.34;;;20.80;37.87
62544;BME280;48597;49.030;1.822;2023-02-04T04:04:30;102766.13;;;20.80;37.89
62544;BME280;48597;49.030;1.822;2023-02-04T04:06:55;102765.72;;;20.81;38.06
62544;BME280;48597;49.030;1.822;2023-02-04T04:09:21;102771.03;;;20.79;37.94
62544;BME280;48597;49.030;1.822;2023-02-04T04:11:46;102770.63;;;20.81;38.06
62544;BME280;48597;49.030;1.822;2023-02-04T04:14:11;102770.63;;;20.81;37.88
62544;BME280;48597;49.030;1.822;2023-02-04T04:16:36;102778.41;;;20.80;38.11
62544;BME280;48597;49.030;1.822;2023-02-04T04:19:02;102771.84;;;20.80;38.06
62544;BME280;48597;49.030;1.822;2023-02-04T04:21:27;102775.53;;;20.80;37.88
62544;BME280;48597;49.030;1.822;2023-02-04T04:23:52;102782.50;;;20.79;37.96
62544;BME280;48597;49.030;1.822;2023-02-04T04:26:17;102778.00;;;20.78;38.12
62544;BME280;48597;49.030;1.822;2023-02-04T04:28:43;102787.00;;;20.80;37.97
62544;BME280;48597;49.030;1.822;2023-02-04T04:31:08;102785.78;;;20.81;38.06
62544;BME280;48597;49.030;1.822;2023-02-04T04:33:33;102778.81;;;20.79;37.91
62544;BME280;48597;49.030;1.822;2023-02-04T04:35:59;102782.50;;;20.79;38.06
62544;BME280;48597;49.030;1.822;2023-02-04T04:38:24;102781.69;;;20.82;37.81
62544;BME280;48597;49.030;1.822;2023-02-04T04:40:49;102789.88;;;20.80;37.98
62544;BME280;48597;49.030;1.822;2023-02-04T04:43:14;102786.19;;;20.80;38.11
62544;BME280;48597;49.030;1.822;2023-02-04T04:45:40;102782.13;;;20.77;38.07
62544;BME280;48597;49.030;1.822;2023-02-04T04:48:05;102783.72;;;20.78;37.90
62544;BME280;48597;49.030;1.822;2023-02-04T04:50:30;102783.72;;;20.78;37.96
62544;BME280;48597;49.030;1.822;2023-02-04T04:52:55;102786.59;;;20.78;38.13
62544;BME280;48597;49.030;1.822;2023-02-04T04:55:21;102784.94;;;20.81;37.94
62544;BME280;48597;49.030;1.822;2023-02-04T04:57:46;102786.59;;;20.82;38.09
62544;BME280;48597;49.030;1.822;2023-02-04T05:00:14;102795.19;;;20.82;38.07
62544;BME280;48597;49.030;1.822;2023-02-04T05:02:39;102791.09;;;20.79;38.00
62544;BME280;48597;49.030;1.822;2023-02-04T05:05:05;102788.63;;;20.78;37.98
62544;BME280;48597;49.030;1.822;2023-02-04T05:07:30;102795.19;;;20.78;38.09
62544;BME280;48597;49.030;1.822;2023-02-04T05:09:55;102792.31;;;20.78;37.97
62544;BME280;48597;49.030;1.822;2023-02-04T05:12:20;102793.13;;;20.79;38.12
62544;BME280;48597;49.030;1.822;2023-02-04T05:14:45;102793.13;;;20.79;37.90
62544;BME280;48597;49.030;1.822;2023-02-04T05:17:11;102801.75;;;20.79;38.16
62544;BME280;48597;49.030;1.822;2023-02-04T05:19:36;102800.09;;;20.78;37.99
62544;BME280;48597;49.030;1.822;2023-02-04T05:22:01;102800.09;;;20.81;38.13
62544;BME280;48597;49.030;1.822;2023-02-04T05:24:27;102802.97;;;20.78;38.10
62544;BME280;48597;49.030;1.822;2023-02-04T05:26:52;102798.06;;;20.78;37.97
62544;BME280;48597;49.030;1.822;2023-02-04T05:29:17;102801.75;;;20.79;37.93
62544;BME280;48597;49.030;1.822;2023-02-04T05:31:43;102803.38;;;20.80;37.97
62544;BME280;48597;49.030;1.822;2023-02-04T05:34:08;102798.88;;;20.79;38.23
62544;BME280;48597;49.030;1.822;2023-02-04T05:36:33;102803.38;;;20.80;38.14
62544;BME280;48597;49.030;1.822;2023-02-04T05:38:58;102803.38;;;20.80;37.90
62544;BME280;48597;49.030;1.822;2023-02-04T05:41:24;102805.03;;;20.77;38.25
62544;BME280;48597;49.030;1.822;2023-02-04T05:43:49;102797.25;;;20.81;37.90
62544;BME280;48597;49.030;1.822;2023-02-04T05:46:14;102791.09;;;20.79;38.14
62544;BME280;48597;49.030;1.822;2023-02-04T05:48:39;102798.47;;;20.80;37.99
62544;BME280;48597;49.030;1.822;2023-02-04T05:51:04;102793.56;;;20.81;37.96
62544;BME280;48597;49.030;1.822;2023-02-04T05:53:30;102795.19;;;20.82;38.13
62544;BME280;48597;49.030;1.822;2023-02-04T05:55:55;102796.41;;;20.81;38.16
62544;BME280;48597;49.030;1.822;2023-02-04T05:58:20;102799.69;;;20.79;38.06
62544;BME280;48597;49.030;1.822;2023-02-04T06:00:45;102807.88;;;20.81;38.15
62544;BME280;48597;49.030;1.822;2023-02-04T06:03:11;102812.38;;;20.85;38.13
62544;BME280;48597;49.030;1.822;2023-02-04T06:05:38;102808.28;;;20.79;38.17
62544;BME280;48597;49.030;1.822;2023-02-04T06:08:03;102817.72;;;20.80;38.20
62544;BME280;48597;49.030;1.822;2023-02-04T06:10:28;102818.94;;;20.79;38.22
62544;BME280;48597;49.030;1.822;2023-02-04T06:12:54;102814.84;;;20.80;38.21
62544;BME280;48597;49.030;1.822;2023-02-04T06:15:19;102821.41;;;20.80;38.02
62544;BME280;48597;49.030;1.822;2023-02-04T06:17:44;102821.41;;;20.84;37.94
62544;BME280;48597;49.030;1.822;2023-02-04T06:20:11;102818.13;;;20.78;38.07
62544;BME280;48597;49.030;1.822;2023-02-04T06:22:37;102812.38;;;20.82;37.88
62544;BME280;48597;49.030;1.822;2023-02-04T06:25:02;102819.34;;;20.81;37.88
62544;BME280;48597;49.030;1.822;2023-02-04T06:27:28;102818.94;;;20.82;38.05
62544;BME280;48597;49.030;1.822;2023-02-04T06:29:53;102814.03;;;20.79;37.95
62544;BME280;48597;49.030;1.822;2023-02-04T06:32:18;102817.28;;;20.78;38.20
62544;BME280;48597;49.030;1.822;2023-02-04T06:34:44;102820.97;;;20.78;37.96
62544;BME280;48597;49.030;1.822;2023-02-04T06:37:09;102822.25;;;20.77;38.09
62544;BME280;48597;49.030;1.822;2023-02-04T06:39:35;102823.88;;;20.75;38.06
62544;BME280;48597;49.030;1.822;2023-02-04T06:42:00;102821.41;;;20.77;38.18
62544;BME280;48597;49.030;1.822;2023-02-04T06:44:25;102820.19;;;20.74;38.17
62544;BME280;48597;49.030;1.822;2023-02-04T06:46:51;102821.00;;;20.75;38.02
62544;BME280;48597;49.030;1.822;2023-02-04T06:49:16;102817.31;;;20.74;38.09
62544;BME280;48597;49.030;1.822;2023-02-04T06:51:41;102836.16;;;20.75;37.91
62544;BME280;48597;49.030;1.822;2023-02-04T06:54:08;102828.78;;;20.74;38.02
62544;BME280;48597;49.030;1.822;2023-02-04T06:56:33;102823.88;;;20.75;38.06
62544;BME280;48597;49.030;1.822;2023-02-04T06:58:58;102824.69;;;20.75;38.00
62544;BME280;48597;49.030;1.822;2023-02-04T07:01:24;102826.31;;;20.73;38.19
62544;BME280;48597;49.030;1.822;2023-02-04T07:03:49;102826.31;;;20.76;37.96
62544;BME280;48597;49.030;1.822;2023-02-04T07:06:14;102820.16;;;20.78;38.02
62544;BME280;48597;49.030;1.822;2023-02-04T07:08:39;102827.53;;;20.79;38.12
62544;BME280;48597;49.030;1.822;2023-02-04T07:11:05;102828.75;;;20.81;37.89
62544;BME280;48597;49.030;1.822;2023-02-04T07:13:31;102831.22;;;20.79;38.04
62544;BME280;48597;49.030;1.822;2023-02-04T07:15:57;102827.13;;;20.80;38.05
62544;BME280;48597;49.030;1.822;2023-02-04T07:18:22;102833.69;;;20.81;38.06
62544;BME280;48597;49.030;1.822;2023-02-04T07:23:12;102837.38;;;20.85;37.91
62544;BME280;48597;49.030;1.822;2023-02-04T07:25:38;102834.50;;;20.88;37.94
62544;BME280;48597;49.030;1.822;2023-02-04T07:28:04;102833.69;;;20.88;38.03
62544;BME280;48597;49.030;1.822;2023-02-04T07:30:29;102843.50;;;20.87;38.09
62544;BME280;48597;49.030;1.822;2023-02-04T07:32:55;102842.69;;;20.86;38.08
62544;BME280;48597;49.030;1.822;2023-02-04T07:35:20;102847.59;;;20.86;37.97
62544;BME280;48597;49.030;1.822;2023-02-04T07:37:45;102845.97;;;20.88;38.03
62544;BME280;48597;49.030;1.822;2023-02-04T07:40:11;102846.38;;;20.87;38.10
62544;BME280;48597;49.030;1.822;2023-02-04T07:42:36;102843.09;;;20.85;38.08
62544;BME280;48597;49.030;1.822;2023-02-04T07:45:01;102850.47;;;20.86;38.09
62544;BME280;48597;49.030;1.822;2023-02-04T07:47:27;102845.56;;;20.86;37.85
62544;BME280;48597;49.030;1.822;2023-02-04T07:49:52;102850.88;;;20.84;38.11
62544;BME280;48597;49.030;1.822;2023-02-04T07:57:11;102852.50;;;20.82;38.06
62544;BME280;48597;49.030;1.822;2023-02-04T07:59:36;102866.84;;;20.82;38.15
62544;BME280;48597;49.030;1.822;2023-02-04T08:02:01;102864.81;;;20.82;38.10
62544;BME280;48597;49.030;1.822;2023-02-04T08:04:26;102871.75;;;20.81;38.12
62544;BME280;48597;49.030;1.822;2023-02-04T08:09:17;102873.41;;;20.82;38.11
62544;BME280;48597;49.030;1.822;2023-02-04T08:11:42;102880.34;;;20.81;38.11
62544;BME280;48597;49.030;1.822;2023-02-04T08:14:07;102888.56;;;20.86;38.08
62544;BME280;48597;49.030;1.822;2023-02-04T08:16:33;102886.09;;;20.85;38.16
62544;BME280;48597;49.030;1.822;2023-02-04T08:18:58;102880.38;;;20.85;38.14
62544;BME280;48597;49.030;1.822;2023-02-04T08:21:23;102883.63;;;20.83;38.53
62544;BME280;48597;49.030;1.822;2023-02-04T08:23:48;102885.69;;;20.86;38.68
62544;BME280;48597;49.030;1.822;2023-02-04T08:26:15;102874.63;;;20.88;38.81
62544;BME280;48597;49.030;1.822;2023-02-04T08:31:43;102890.19;;;20.91;38.98
62544;BME280;48597;49.030;1.822;2023-02-04T08:34:09;102887.75;;;20.89;39.04
62544;BME280;48597;49.030;1.822;2023-02-04T08:36:35;102887.75;;;20.89;38.92
62544;BME280;48597;49.030;1.822;2023-02-04T08:39:00;102893.47;;;20.89;39.23
62544;BME280;48597;49.030;1.822;2023-02-04T08:41:26;102882.00;;;20.89;39.05
62544;BME280;48597;49.030;1.822;2023-02-04T08:43:51;102887.75;;;20.89;39.07
62544;BME280;48597;49.030;1.822;2023-02-04T08:46:17;102891.03;;;20.88;39.05
62544;BME280;48597;49.030;1.822;2023-02-04T08:48:42;102883.22;;;20.85;39.27
62544;BME280;48597;49.030;1.822;2023-02-04T08:51:09;102886.50;;;20.80;39.31
62544;BME280;48597;49.030;1.822;2023-02-04T08:53:34;102888.56;;;20.76;39.45
62544;BME280;48597;49.030;1.822;2023-02-04T08:55:59;102893.88;;;20.74;39.44
62544;BME280;48597;49.030;1.822;2023-02-04T08:58:26;102895.09;;;20.73;39.65
62544;BME280;48597;49.030;1.822;2023-02-04T09:00:51;102900.00;;;20.72;39.68
62544;BME280;48597;49.030;1.822;2023-02-04T09:03:17;102897.56;;;20.71;39.52
62544;BME280;48597;49.030;1.822;2023-02-04T09:05:42;102895.09;;;20.69;39.70
62544;BME280;48597;49.030;1.822;2023-02-04T09:08:08;102892.22;;;20.69;39.53
62544;BME280;48597;49.030;1.822;2023-02-04T09:10:33;102897.13;;;20.68;39.65
62544;BME280;48597;49.030;1.822;2023-02-04T09:12:59;102897.53;;;20.67;39.53
62544;BME280;48597;49.030;1.822;2023-02-04T09:15:24;102900.00;;;20.65;39.75
62544;BME280;48597;49.030;1.822;2023-02-04T09:17:50;102900.00;;;20.65;39.79
62544;BME280;48597;49.030;1.822;2023-02-04T09:20:17;102905.34;;;20.63;39.73
62544;BME280;48597;49.030;1.822;2023-02-04T09:22:45;102902.47;;;20.63;39.70
62544;BME280;48597;49.030;1.822;2023-02-04T09:25:12;102905.75;;;20.61;39.66
62544;BME280;48597;49.030;1.822;2023-02-04T09:27:37;102902.84;;;20.58;39.66
62544;BME280;48597;49.030;1.822;2023-02-04T09:30:02;102902.44;;;20.59;39.73
62544;BME280;48597;49.030;1.822;2023-02-04T09:32:27;102897.13;;;20.58;39.75
62544;BME280;48597;49.030;1.822;2023-02-04T09:34:54;102900.00;;;20.58;39.59
62544;BME280;48597;49.030;1.822;2023-02-04T09:37:19;102903.69;;;20.58;39.79
62544;BME280;48597;49.030;1.822;2023-02-04T09:39:45;102899.16;;;20.57;39.69
62544;BME280;48597;49.030;1.822;2023-02-04T09:42:12;102904.09;;;20.57;39.89
62544;BME280;48597;49.030;1.822;2023-02-04T09:44:38;102904.09;;;20.57;39.87
62544;BME280;48597;49.030;1.822;2023-02-04T09:47:03;102910.63;;;20.57;39.76
62544;BME280;48597;49.030;1.822;2023-02-04T09:49:28;102912.69;;;20.57;39.60
62544;BME280;48597;49.030;1.822;2023-02-04T09:51:54;102921.28;;;20.57;39.93
62544;BME280;48597;49.030;1.822;2023-02-04T09:54:20;102915.53;;;20.57;39.79
62544;BME280;48597;49.030;1.822;2023-02-04T09:56:46;102929.44;;;20.55;39.79
62544;BME280;48597;49.030;1.822;2023-02-04T09:59:13;102920.84;;;20.55;39.97
62544;BME280;48597;49.030;1.822;2023-02-04T10:01:38;102925.75;;;20.54;39.86
62544;BME280;48597;49.030;1.822;2023-02-04T10:04:04;102927.00;;;20.53;39.94
62544;BME280;48597;49.030;1.822;2023-02-04T10:06:29;102930.69;;;20.54;40.00
62544;BME280;48597;49.030;1.822;2023-02-04T10:08:55;102939.28;;;20.54;40.02
62544;BME280;48597;49.030;1.822;2023-02-04T10:11:21;102934.75;;;20.53;39.97
62544;BME280;48597;49.030;1.822;2023-02-04T10:13:48;102938.84;;;20.52;39.97
62544;BME280;48597;49.030;1.822;2023-02-04T10:16:25;102927.00;;;20.50;39.89
62544;BME280;48597;49.030;1.822;2023-02-04T10:19:12;102930.69;;;20.50;40.06
62544;BME280;48597;49.030;1.822;2023-02-04T10:21:38;102934.78;;;20.49;39.92
62544;BME280;48597;49.030;1.822;2023-02-04T10:24:06;102936.41;;;20.47;40.01
62544;BME280;48597;49.030;1.822;2023-02-04T10:26:34;102928.63;;;20.47;40.33
62544;BME280;48597;49.030;1.822;2023-02-04T10:29:04;102938.44;;;20.46;40.18
62544;BME280;48597;49.030;1.822;2023-02-04T10:36:28;102952.75;;;20.43;40.13
62544;BME280;48597;49.030;1.822;2023-02-04T10:38:59;102946.59;;;20.41;40.03
62544;BME280;48597;49.030;1.822;2023-02-04T10:41:24;102949.88;;;20.39;40.34
62544;BME280;48597;49.030;1.822;2023-02-04T10:44:06;102935.97;;;20.38;40.32
62544;BME280;48597;49.030;1.822;2023-02-04T10:46:33;102944.13;;;20.39;40.36
62544;BME280;48597;49.030;1.822;2023-02-04T10:48:58;102950.31;;;20.38;40.37
62544;BME280;48597;49.030;1.822;2023-02-04T10:51:24;102944.97;;;20.36;40.31
62544;BME280;48597;49.030;1.822;2023-02-04T10:53:49;102949.88;;;20.36;40.31
62544;BME280;48597;49.030;1.822;2023-02-04T10:56:33;102944.16;;;20.36;40.51
62544;BME280;48597;49.030;1.822;2023-02-04T10:58:58;102952.28;;;20.33;40.30
62544;BME280;48597;49.030;1.822;2023-02-04T11:01:25;102956.38;;;20.32;40.36
62544;BME280;48597;49.030;1.822;2023-02-04T11:03:52;102957.59;;;20.31;40.28
62544;BME280;48597;49.030;1.822;2023-02-04T11:06:22;102955.94;;;20.30;40.28
62544;BME280;48597;49.030;1.822;2023-02-04T11:08:48;102958.81;;;20.30;40.34
62544;BME280;48597;49.030;1.822;2023-02-04T11:11:16;102953.50;;;20.29;40.46
62544;BME280;48597;49.030;1.822;2023-02-04T11:23:47;102961.66;;;20.23;40.47
62544;BME280;48597;49.030;1.822;2023-02-04T11:33:45;102958.81;;;20.23;40.49
62544;BME280;48597;49.030;1.822;2023-02-04T11:36:12;102953.06;;;20.23;40.40
62544;BME280;48597;49.030;1.822;2023-02-04T11:38:39;102951.03;;;20.24;40.48
62544;BME280;48597;49.030;1.822;2023-02-04T11:41:11;102952.25;;;20.23;40.50
62544;BME280;48597;49.030;1.822;2023-02-04T11:43:39;102949.78;;;20.21;40.38
62544;BME280;48597;49.030;1.822;2023-02-04T11:46:09;102949.78;;;20.21;40.34
62544;BME280;48597;49.030;1.822;2023-02-04T11:48:36;102953.88;;;20.20;40.35
62544;BME280;48597;49.030;1.822;2023-02-04T11:51:02;102956.75;;;20.20;40.32
62544;BME280;48597;49.030;1.822;2023-02-04T11:53:28;102952.22;;;20.19;40.31
62544;BME280;48597;49.030;1.822;2023-02-04T11:55:57;102946.91;;;20.18;40.39
62544;BME280;48597;49.030;1.822;2023-02-04T11:58:41;102948.94;;;20.17;40.32
62544;BME280;48597;49.030;1.822;2023-02-04T12:01:15;102945.66;;;20.15;40.29
62544;BME280;48597;49.030;1.822;2023-02-04T12:03:49;102943.19;;;20.14;40.46
62544;BME280;48597;49.030;1.822;2023-02-04T12:06:28;102941.16;;;20.14;40.37
62544;BME280;48597;49.030;1.822;2023-02-04T12:11:31;102935.03;;;20.12;40.46
62544;BME280;48597;49.030;1.822;2023-02-04T12:13:58;102943.19;;;20.14;40.53
62544;BME280;48597;49.030;1.822;2023-02-04T12:16:23;102932.19;;;20.12;40.49
62544;BME280;48597;49.030;1.822;2023-02-04T12:18:49;102949.34;;;20.12;40.32
62544;BME280;48597;49.030;1.822;2023-02-04T12:21:14;102934.22;;;20.12;40.35
62544;BME280;48597;49.030;1.822;2023-02-04T12:23:41;102937.47;;;20.10;40.51
62544;BME280;48597;49.030;1.822;2023-02-04T12:26:07;102937.47;;;20.10;40.42
62544;BME280;48597;49.030;1.822;2023-02-04T12:28:32;102934.63;;;20.10;40.40
62544;BME280;48597;49.030;1.822;2023-02-04T12:30:57;102937.88;;;20.09;40.35
62544;BME280;48597;49.030;1.822;2023-02-04T12:33:22;102938.28;;;20.07;40.38
62544;BME280;48597;49.030;1.822;2023-02-04T12:35:48;102934.59;;;20.07;40.46
62544;BME280;48597;49.030;1.822;2023-02-04T12:38:14;102940.31;;;20.07;40.44
62544;BME280;48597;49.030;1.822;2023-02-04T12:40:39;102942.38;;;20.06;40.51
62544;BME280;48597;49.030;1.822;2023-02-04T12:43:04;102945.22;;;20.06;40.47
62544;BME280;48597;49.030;1.822;2023-02-04T12:45:30;102947.28;;;20.06;40.54
62544;BME280;48597;49.030;1.822;2023-02-04T12:47:57;102945.63;;;20.05;40.72
62544;BME280;48597;49.030;1.822;2023-02-04T12:50:22;102948.88;;;20.03;40.73
62544;BME280;48597;49.030;1.822;2023-02-04T12:52:54;102943.97;;;20.04;40.87
62544;BME280;48597;49.030;1.822;2023-02-04T12:55:27;102948.06;;;20.03;40.99
62544;BME280;48597;49.030;1.822;2023-02-04T12:57:53;102946.81;;;20.00;40.96
62544;BME280;48597;49.030;1.822;2023-02-04T13:00:19;102945.59;;;20.01;40.97
62544;BME280;48597;49.030;1.822;2023-02-04T13:02:44;102946.81;;;20.00;41.01
62544;BME280;48597;49.030;1.822;2023-02-04T13:05:10;102946.81;;;20.00;41.08
62544;BME280;48597;49.030;1.822;2023-02-04T13:07:35;102944.38;;;19.98;41.20
62544;BME280;48597;49.030;1.822;2023-02-04T13:10:01;102947.66;;;19.97;41.27
62544;BME280;48597;49.030;1.822;2023-02-04T13:12:26;102938.63;;;19.95;41.55
62544;BME280;48597;49.030;1.822;2023-02-04T13:14:51;102952.94;;;19.95;41.43
62544;BME280;48597;49.030;1.822;2023-02-04T13:17:17;102950.09;;;19.95;41.31
62544;BME280;48597;49.030;1.822;2023-02-04T13:19:44;102943.13;;;19.96;41.45
62544;BME280;48597;49.030;1.822;2023-02-04T13:22:09;102945.16;;;19.92;41.50